createdAt,value
2022-10-30T00:00:50.225Z,6.40
2022-10-30T00:03:18.092Z,4.43
2022-10-30T00:05:46.342Z,6.30
2022-10-30T00:08:14.271Z,5.18
2022-10-30T00:10:42.042Z,5.30
2022-10-30T00:13:09.707Z,6.15
2022-10-30T00:15:36.896Z,4.28
2022-10-30T00:18:04.171Z,6.25
2022-10-30T00:20:31.269Z,6.38
2022-10-30T00:22:58.613Z,5.05
2022-10-30T00:25:25.993Z,7.35
2022-10-30T00:27:53.120Z,6.65
2022-10-30T00:30:20.208Z,5.57
2022-10-30T00:32:47.337Z,5.95
2022-10-30T00:35:14.502Z,4.20
2022-10-30T00:37:41.811Z,6.25
2022-10-30T00:40:10.544Z,5.63
2022-10-30T00:42:37.774Z,6.30
2022-10-30T00:45:07.131Z,6.00
2022-10-30T00:47:34.201Z,4.70
2022-10-30T00:50:07.813Z,5.68
2022-10-30T00:52:36.670Z,3.42
2022-10-30T00:55:06.787Z,5.82
2022-10-30T00:57:35.095Z,4.00
2022-10-30T01:00:02.608Z,5.65
2022-10-30T01:02:29.770Z,5.22
2022-10-30T01:04:57.091Z,6.60
2022-10-30T01:07:24.457Z,6.35
2022-10-30T01:09:52.695Z,3.33
2022-10-30T01:12:19.854Z,6.57
2022-10-30T01:14:50.735Z,5.32
2022-10-30T01:17:36.747Z,4.53
2022-10-30T01:20:17.915Z,6.43
2022-10-30T01:22:55.776Z,5.28
2022-10-30T01:25:33.878Z,6.68
2022-10-30T01:28:01.044Z,4.43
2022-10-30T01:30:42.711Z,6.60
2022-10-30T01:33:16.646Z,5.05
2022-10-30T01:35:49.660Z,4.47
2022-10-30T01:38:20.297Z,3.72
2022-10-30T01:40:47.557Z,5.30
2022-10-30T01:43:15.781Z,5.90
2022-10-30T01:45:52.338Z,4.70
2022-10-30T01:48:38.450Z,5.68
2022-10-30T01:51:14.991Z,4.55
2022-10-30T01:54:02.311Z,5.90
2022-10-30T01:56:37.689Z,5.97
2022-10-30T01:59:28.130Z,5.25
2022-10-30T02:01:55.470Z,5.07
2022-10-30T02:04:22.804Z,5.10
2022-10-30T02:06:50.440Z,6.22
2022-10-30T02:09:18.174Z,6.18
2022-10-30T02:11:46.505Z,5.68
2022-10-30T02:14:16.429Z,6.20
2022-10-30T02:16:45.928Z,7.13
2022-10-30T02:19:13.125Z,5.90
2022-10-30T02:21:40.263Z,6.05
2022-10-30T02:24:07.613Z,5.40
2022-10-30T02:26:35.108Z,5.65
2022-10-30T02:29:02.310Z,5.65
2022-10-30T02:31:29.548Z,5.38
2022-10-30T02:33:56.627Z,6.28
2022-10-30T02:36:23.736Z,6.20
2022-10-30T02:38:50.959Z,3.90
2022-10-30T02:41:18.138Z,6.13
2022-10-30T02:43:45.223Z,4.88
2022-10-30T02:46:12.316Z,4.90
2022-10-30T02:48:39.452Z,2.90
2022-10-30T02:51:06.716Z,6.60
2022-10-30T02:53:34.407Z,5.13
2022-10-30T02:56:05.256Z,5.15
2022-10-30T02:58:32.323Z,5.38
2022-10-30T03:01:05.712Z,5.68
2022-10-30T03:03:32.947Z,4.88
2022-10-30T03:06:07.419Z,5.78
2022-10-30T03:11:21.535Z,5.55
2022-10-30T03:13:49.227Z,5.50
2022-10-30T03:16:23.801Z,5.75
2022-10-30T03:18:51.314Z,3.78
2022-10-30T03:21:20.216Z,5.10
2022-10-30T03:23:47.338Z,6.22
2022-10-30T03:26:14.506Z,4.28
2022-10-30T03:28:41.834Z,6.10
2022-10-30T03:31:10.325Z,5.25
2022-10-30T03:33:38.043Z,5.80
2022-10-30T03:36:05.986Z,5.50
2022-10-30T03:38:33.181Z,5.85
2022-10-30T03:41:00.632Z,4.40
2022-10-30T03:43:28.077Z,4.30
2022-10-30T03:45:56.219Z,5.47
2022-10-30T03:48:24.218Z,5.53
2022-10-30T03:50:53.206Z,5.80
2022-10-30T03:53:20.467Z,6.45
2022-10-30T03:55:47.696Z,4.88
2022-10-30T03:58:15.941Z,5.95
2022-10-30T04:00:43.014Z,4.50
2022-10-30T04:03:11.106Z,5.22
2022-10-30T04:05:38.359Z,5.07
2022-10-30T04:08:09.481Z,7.15
2022-10-30T04:10:36.793Z,5.97
2022-10-30T04:13:07.716Z,5.93
2022-10-30T04:15:35.262Z,6.65
2022-10-30T04:18:02.619Z,6.30
2022-10-30T04:20:30.512Z,6.18
2022-10-30T04:22:58.176Z,6.13
2022-10-30T04:25:25.741Z,5.85
2022-10-30T04:27:53.167Z,5.55
2022-10-30T04:30:25.112Z,5.88
2022-10-30T04:32:53.295Z,5.03
2022-10-30T04:35:21.130Z,5.88
2022-10-30T04:37:57.143Z,7.15
2022-10-30T04:40:25.464Z,6.57
2022-10-30T04:42:52.623Z,5.15
2022-10-30T04:45:20.178Z,6.72
2022-10-30T04:47:47.277Z,5.88
2022-10-30T04:50:14.848Z,5.30
2022-10-30T04:52:42.559Z,5.95
2022-10-30T04:55:10.605Z,6.15
2022-10-30T04:57:38.096Z,6.10
2022-10-30T05:00:06.353Z,4.25
2022-10-30T05:02:35.838Z,5.25
2022-10-30T05:05:03.312Z,6.20
2022-10-30T05:07:30.377Z,4.47
2022-10-30T05:09:57.462Z,6.63
2022-10-30T05:12:24.678Z,5.63
2022-10-30T05:14:52.077Z,6.10
2022-10-30T05:17:19.465Z,5.90
2022-10-30T05:19:46.596Z,6.03
2022-10-30T05:22:13.654Z,6.85
2022-10-30T05:24:40.749Z,6.55
2022-10-30T05:27:07.991Z,6.38
2022-10-30T05:29:35.428Z,6.15
2022-10-30T05:32:02.571Z,5.70
2022-10-30T05:34:29.716Z,6.63
2022-10-30T05:36:56.826Z,5.13
2022-10-30T05:39:26.055Z,7.82
2022-10-30T05:41:53.206Z,6.45
2022-10-30T05:44:34.193Z,7.18
2022-10-30T05:49:34.408Z,6.10
2022-10-30T05:52:01.493Z,7.05
2022-10-30T05:54:29.107Z,6.13
2022-10-30T05:56:57.956Z,7.88
2022-10-30T05:59:25.078Z,5.75
2022-10-30T06:01:52.404Z,8.32
2022-10-30T06:04:19.469Z,9.32
2022-10-30T06:06:46.557Z,8.75
2022-10-30T06:09:13.863Z,7.68
2022-10-30T06:11:41.068Z,9.15
2022-10-30T06:14:08.183Z,9.68
2022-10-30T06:16:35.287Z,8.80
2022-10-30T06:19:02.609Z,6.55
2022-10-30T06:21:29.710Z,7.20
2022-10-30T06:23:56.830Z,5.97
2022-10-30T06:26:23.910Z,7.88
2022-10-30T06:28:51.172Z,6.82
2022-10-30T06:31:18.264Z,7.90
2022-10-30T06:33:45.353Z,7.25
2022-10-30T06:36:12.481Z,8.30
2022-10-30T06:38:39.613Z,9.00
2022-10-30T06:41:06.864Z,7.80
2022-10-30T06:43:34.103Z,7.82
2022-10-30T06:46:01.293Z,8.82
2022-10-30T06:48:28.459Z,8.48
2022-10-30T06:50:59.236Z,9.40
2022-10-30T06:53:26.827Z,8.48
2022-10-30T06:55:58.971Z,8.65
2022-10-30T06:58:26.500Z,8.50
2022-10-30T07:00:53.629Z,9.30
2022-10-30T07:03:20.948Z,8.30
2022-10-30T07:05:48.083Z,8.95
2022-10-30T07:08:15.277Z,8.88
2022-10-30T07:10:42.405Z,8.48
2022-10-30T07:13:09.809Z,8.57
2022-10-30T07:15:37.103Z,9.55
2022-10-30T07:18:05.094Z,8.07
2022-10-30T07:20:33.187Z,7.78
2022-10-30T07:23:00.831Z,8.00
2022-10-30T07:25:27.965Z,7.97
2022-10-30T07:27:55.761Z,7.50
2022-10-30T07:37:45.579Z,7.72
2022-10-30T07:40:13.280Z,8.52
2022-10-30T07:42:40.502Z,8.93
2022-10-30T07:45:07.881Z,7.85
2022-10-30T07:47:39.394Z,8.98
2022-10-30T07:50:06.690Z,7.43
2022-10-30T07:52:34.031Z,8.18
2022-10-30T07:55:01.104Z,7.35
2022-10-30T07:57:28.282Z,8.05
2022-10-30T07:59:58.149Z,7.65
2022-10-30T08:02:28.370Z,7.85
2022-10-30T08:04:56.480Z,6.43
2022-10-30T08:07:23.595Z,6.55
2022-10-30T08:09:50.746Z,7.25
2022-10-30T08:12:17.891Z,7.88
2022-10-30T08:14:45.026Z,7.50
2022-10-30T08:17:12.406Z,8.35
2022-10-30T08:19:39.538Z,8.15
2022-10-30T08:22:06.720Z,8.02
2022-10-30T08:24:33.846Z,8.68
2022-10-30T08:27:00.980Z,7.70
2022-10-30T08:32:10.662Z,8.00
2022-10-30T08:34:37.727Z,7.32
2022-10-30T08:37:07.869Z,8.27
2022-10-30T08:39:34.971Z,8.48
2022-10-30T08:42:02.275Z,8.00
2022-10-30T08:44:29.342Z,8.88
2022-10-30T08:46:56.574Z,7.65
2022-10-30T08:49:23.868Z,8.98
2022-10-30T08:51:50.936Z,8.68
2022-10-30T08:54:18.169Z,7.45
2022-10-30T08:56:45.236Z,8.75
2022-10-30T08:59:15.847Z,8.13
2022-10-30T09:01:47.736Z,8.80
2022-10-30T09:04:14.998Z,8.20
2022-10-30T09:06:42.239Z,9.52
2022-10-30T09:09:09.367Z,8.77
2022-10-30T09:11:36.459Z,8.60
2022-10-30T09:14:03.622Z,8.75
2022-10-30T09:16:30.860Z,8.98
2022-10-30T09:18:58.144Z,7.63
2022-10-30T09:21:25.256Z,8.52
2022-10-30T09:23:52.408Z,9.10
2022-10-30T09:26:20.953Z,7.22
2022-10-30T09:28:48.274Z,8.13
2022-10-30T09:31:15.401Z,8.40
2022-10-30T09:33:42.477Z,8.65
2022-10-30T09:36:09.746Z,8.10
2022-10-30T09:38:36.894Z,9.27
2022-10-30T09:41:27.774Z,8.38
2022-10-30T09:44:07.180Z,5.40
2022-10-30T09:46:43.218Z,8.68
2022-10-30T09:52:18.043Z,7.78
2022-10-30T09:54:50.955Z,7.50
2022-10-30T09:57:20.825Z,8.60
2022-10-30T10:00:03.101Z,8.43
2022-10-30T10:02:38.117Z,8.30
2022-10-30T10:05:25.183Z,8.10
2022-10-30T10:07:55.425Z,9.07
2022-10-30T10:13:51.740Z,7.80
2022-10-30T10:16:22.738Z,8.38
2022-10-30T10:18:53.215Z,8.07
2022-10-30T10:21:28.265Z,7.55
2022-10-30T10:23:56.840Z,8.68
2022-10-30T10:26:26.946Z,8.68
2022-10-30T10:28:56.859Z,9.25
2022-10-30T10:31:23.924Z,9.00
2022-10-30T10:33:53.670Z,9.15
2022-10-30T10:36:28.025Z,8.50
2022-10-30T10:38:55.065Z,8.43
2022-10-30T10:41:28.657Z,8.80
2022-10-30T10:44:12.825Z,8.60
2022-10-30T10:46:53.017Z,8.38
2022-10-30T10:49:20.120Z,8.32
2022-10-30T10:51:53.006Z,7.78
2022-10-30T10:54:24.453Z,9.07
2022-10-30T10:56:52.267Z,7.68
2022-10-30T10:59:41.895Z,8.23
2022-10-30T11:02:09.195Z,8.68
2022-10-30T11:04:39.296Z,8.40
2022-10-30T11:07:31.722Z,7.57
2022-10-30T11:09:58.840Z,8.50
2022-10-30T11:12:33.692Z,8.15
2022-10-30T11:15:20.907Z,8.65
2022-10-30T11:17:51.101Z,8.63
2022-10-30T11:20:20.547Z,8.77
2022-10-30T11:22:51.424Z,8.13
2022-10-30T11:25:30.180Z,8.20
2022-10-30T11:27:59.906Z,8.48
2022-10-30T11:30:28.883Z,7.85
2022-10-30T11:32:57.277Z,8.15
2022-10-30T11:35:24.695Z,8.23
2022-10-30T11:37:52.836Z,7.72
2022-10-30T11:40:20.285Z,7.05
2022-10-30T11:42:52.116Z,7.88
2022-10-30T11:45:26.187Z,7.70
2022-10-30T11:47:55.993Z,7.78
2022-10-30T11:50:27.574Z,8.18
2022-10-30T11:52:59.587Z,8.20
2022-10-30T11:56:05.540Z,7.88
2022-10-30T11:58:34.973Z,7.50
2022-10-30T12:01:39.945Z,7.65
2022-10-30T12:04:15.312Z,6.75
2022-10-30T12:06:42.398Z,7.85
2022-10-30T12:09:14.426Z,7.10
2022-10-30T12:12:06.683Z,7.57
2022-10-30T12:14:34.877Z,7.55
2022-10-30T12:17:02.032Z,6.57
2022-10-30T12:19:31.135Z,8.10
2022-10-30T12:21:58.783Z,7.05
2022-10-30T12:24:33.108Z,7.00
2022-10-30T12:30:02.517Z,7.35
2022-10-30T12:32:24.642Z,7.18
2022-10-30T12:34:57.023Z,7.05
2022-10-30T12:37:24.093Z,7.95
2022-10-30T12:39:57.553Z,6.38
2022-10-30T12:42:25.528Z,7.55
2022-10-30T12:44:56.247Z,7.18
2022-10-30T12:47:29.622Z,7.32
2022-10-30T12:52:56.284Z,7.70
2022-10-30T12:55:35.327Z,7.55
2022-10-30T12:58:06.136Z,7.13
2022-10-30T13:00:37.854Z,7.50
2022-10-30T13:03:40.672Z,7.35
2022-10-30T13:06:11.454Z,7.57
2022-10-30T13:09:03.101Z,7.47
2022-10-30T13:11:43.619Z,7.25
2022-10-30T13:14:33.422Z,7.43
2022-10-30T13:17:00.546Z,8.00
2022-10-30T13:19:28.146Z,7.72
2022-10-30T13:22:06.381Z,7.57
2022-10-30T13:24:42.711Z,8.65
2022-10-30T13:27:19.185Z,8.15
2022-10-30T13:30:01.711Z,6.05
2022-10-30T13:32:40.397Z,6.88
2022-10-30T13:35:23.042Z,8.05
2022-10-30T13:37:54.017Z,7.03
2022-10-30T13:40:24.262Z,7.00
2022-10-30T13:43:15.527Z,6.47
2022-10-30T13:45:55.899Z,6.90
2022-10-30T13:48:23.036Z,8.45
2022-10-30T13:51:05.112Z,7.63
2022-10-30T13:53:35.491Z,7.30
2022-10-30T13:56:02.753Z,6.20
2022-10-30T13:58:35.328Z,6.82
2022-10-30T14:01:07.864Z,7.85
2022-10-30T14:03:54.061Z,8.20
2022-10-30T14:06:40.059Z,8.90
2022-10-30T14:09:19.604Z,7.55
2022-10-30T14:11:46.707Z,9.40
2022-10-30T14:14:13.739Z,6.57
2022-10-30T14:16:42.318Z,6.63
2022-10-30T14:19:14.139Z,8.38
2022-10-30T14:21:51.751Z,6.25
2022-10-30T14:24:20.805Z,8.85
2022-10-30T14:26:52.644Z,9.20
2022-10-30T14:29:38.306Z,8.57
2022-10-30T14:32:14.758Z,8.10
2022-10-30T14:34:46.305Z,7.82
2022-10-30T14:37:14.013Z,7.78
2022-10-30T14:39:45.036Z,8.07
2022-10-30T14:42:34.761Z,7.53
2022-10-30T14:45:20.705Z,6.28
2022-10-30T14:47:53.925Z,6.88
2022-10-30T14:50:26.913Z,7.57
2022-10-30T14:52:58.315Z,8.88
2022-10-30T14:55:36.872Z,7.65
2022-10-30T14:58:04.026Z,6.07
2022-10-30T15:00:34.862Z,6.78
2022-10-30T15:03:07.964Z,6.65
2022-10-30T15:05:40.462Z,5.95
2022-10-30T15:08:07.556Z,7.72
2022-10-30T15:10:36.449Z,8.65
2022-10-30T15:13:12.536Z,7.65
2022-10-30T15:15:39.701Z,5.85
2022-10-30T15:18:38.325Z,8.75
2022-10-30T15:21:06.435Z,11.27
2022-10-30T15:23:34.451Z,8.25
2022-10-30T15:28:33.622Z,10.32
2022-10-30T15:31:01.389Z,9.85
2022-10-30T15:33:31.505Z,9.57
2022-10-30T15:35:59.714Z,9.90
2022-10-30T15:38:26.939Z,10.20
2022-10-30T15:41:03.473Z,9.80
2022-10-30T15:43:32.657Z,9.57
2022-10-30T15:45:59.913Z,9.52
2022-10-30T15:48:30.271Z,9.80
2022-10-30T15:51:16.224Z,7.25
2022-10-30T15:53:48.921Z,9.75
2022-10-30T15:56:44.535Z,9.63
2022-10-30T15:59:26.177Z,9.55
2022-10-30T16:01:54.870Z,9.23
2022-10-30T16:07:18.770Z,8.13
2022-10-30T16:10:03.024Z,7.57
2022-10-30T16:12:34.201Z,6.60
2022-10-30T16:15:05.813Z,6.72
2022-10-30T16:17:37.123Z,5.60
2022-10-30T16:20:04.956Z,5.53
2022-10-30T16:22:36.701Z,4.07
2022-10-30T16:25:07.708Z,4.60
2022-10-30T16:27:35.200Z,4.57
2022-10-30T16:30:02.586Z,4.35
2022-10-30T16:32:33.071Z,5.20
2022-10-30T16:35:20.268Z,6.07
2022-10-30T16:37:47.544Z,4.78
2022-10-30T16:40:17.571Z,4.82
2022-10-30T16:42:50.126Z,4.53
2022-10-30T16:45:20.347Z,4.53
2022-10-30T16:47:52.189Z,4.65
2022-10-30T16:50:20.627Z,4.43
2022-10-30T16:52:49.570Z,5.10
2022-10-30T16:55:38.522Z,5.65
2022-10-30T16:58:05.907Z,6.43
2022-10-30T17:00:36.360Z,5.25
2022-10-30T17:03:09.606Z,6.22
2022-10-30T17:05:37.391Z,7.10
2022-10-30T17:08:06.295Z,6.43
2022-10-30T17:10:37.656Z,6.10
2022-10-30T17:13:23.521Z,5.88
2022-10-30T17:15:50.698Z,5.25
2022-10-30T17:18:20.503Z,6.68
2022-10-30T17:21:05.125Z,4.13
2022-10-30T17:23:32.406Z,4.85
2022-10-30T17:25:59.553Z,4.93
2022-10-30T17:28:33.737Z,3.80
2022-10-30T17:31:19.270Z,4.53
2022-10-30T17:33:47.209Z,3.47
2022-10-30T17:36:14.401Z,4.72
2022-10-30T17:38:41.585Z,12.25
2022-10-30T17:41:12.676Z,6.85
2022-10-30T17:43:50.313Z,14.90
2022-10-30T17:46:20.328Z,9.50
2022-10-30T17:48:47.884Z,5.50
2022-10-30T17:51:15.247Z,9.63
2022-10-30T17:53:42.413Z,6.82
2022-10-30T17:56:14.646Z,6.95
2022-10-30T17:58:41.789Z,7.10
2022-10-30T18:01:11.298Z,7.93
2022-10-30T18:03:38.526Z,7.55
2022-10-30T18:06:06.268Z,7.47
2022-10-30T18:08:33.852Z,6.75
2022-10-30T18:11:00.925Z,7.45
2022-10-30T18:13:28.074Z,6.43
2022-10-30T18:15:57.820Z,7.65
2022-10-30T18:18:25.052Z,7.32
2022-10-30T18:20:52.189Z,8.70
2022-10-30T18:23:46.690Z,9.93
2022-10-30T18:26:08.207Z,9.10
2022-10-30T18:28:35.826Z,8.82
2022-10-30T18:31:03.006Z,5.40
2022-10-30T18:33:30.165Z,8.10
2022-10-30T18:35:57.964Z,4.90
2022-10-30T18:38:25.056Z,7.78
2022-10-30T18:40:52.419Z,8.00
2022-10-30T18:43:19.558Z,7.18
2022-10-30T18:45:46.660Z,9.75
2022-10-30T18:48:16.626Z,8.95
2022-10-30T18:50:43.970Z,8.75
2022-10-30T18:53:21.167Z,9.30
2022-10-30T18:58:20.270Z,7.43
2022-10-30T19:01:10.603Z,6.80
2022-10-30T19:03:34.495Z,7.85
2022-10-30T19:06:02.622Z,7.07
2022-10-30T19:08:29.714Z,14.98
2022-10-30T19:10:58.101Z,15.10
2022-10-30T19:13:25.292Z,11.18
2022-10-30T19:15:58.959Z,12.55
2022-10-30T19:18:28.624Z,7.43
2022-10-30T19:21:05.147Z,7.90
2022-10-30T19:23:34.430Z,5.15
2022-10-30T19:26:01.742Z,4.40
2022-10-30T19:28:30.950Z,6.40
2022-10-30T19:30:58.345Z,7.57
2022-10-30T19:33:25.568Z,5.10
2022-10-30T19:35:56.537Z,3.88
2022-10-30T19:38:23.939Z,4.80
2022-10-30T19:40:51.579Z,3.55
2022-10-30T19:43:18.968Z,3.03
2022-10-30T19:45:48.045Z,4.38
2022-10-30T19:48:24.728Z,5.45
2022-10-30T19:51:01.854Z,3.17
2022-10-30T19:53:28.980Z,2.92
2022-10-30T19:55:56.080Z,4.95
2022-10-30T19:58:25.929Z,2.83
2022-10-30T20:00:54.337Z,4.82
2022-10-30T20:03:21.896Z,4.20
2022-10-30T20:05:50.469Z,5.00
2022-10-30T20:10:50.448Z,5.70
2022-10-30T20:13:17.849Z,4.63
2022-10-30T20:15:45.121Z,3.60
2022-10-30T20:18:15.564Z,3.20
2022-10-30T20:20:53.793Z,3.35
2022-10-30T20:23:21.819Z,2.58
2022-10-30T20:25:49.953Z,3.97
2022-10-30T20:28:26.242Z,5.60
2022-10-30T20:30:53.717Z,4.65
2022-10-30T20:33:23.135Z,4.05
2022-10-30T20:35:51.192Z,2.70
2022-10-30T20:38:19.630Z,2.80
2022-10-30T20:40:47.367Z,3.72
2022-10-30T20:43:16.592Z,3.33
2022-10-30T20:45:44.147Z,3.13
2022-10-30T20:48:11.465Z,1.70
2022-10-30T20:50:39.012Z,5.68
2022-10-30T20:53:06.406Z,4.78
2022-10-30T20:55:36.680Z,4.80
2022-10-30T20:58:04.129Z,3.10
2022-10-30T21:00:32.954Z,3.03
2022-10-30T21:03:02.492Z,3.38
2022-10-30T21:05:43.317Z,4.70
2022-10-30T21:08:12.270Z,3.97
2022-10-30T21:10:40.020Z,3.97
2022-10-30T21:13:09.095Z,3.83
2022-10-30T21:15:39.917Z,4.10
2022-10-30T21:18:07.236Z,4.85
2022-10-30T21:20:34.358Z,2.83
2022-10-30T21:23:01.661Z,4.00
2022-10-30T21:25:29.625Z,3.78
2022-10-30T21:27:57.410Z,4.10
2022-10-30T21:30:25.420Z,3.70
2022-10-30T21:32:52.754Z,4.30
2022-10-30T21:35:19.868Z,5.10
2022-10-30T21:37:47.177Z,3.47
2022-10-30T21:40:15.285Z,3.45
2022-10-30T21:42:42.449Z,3.67
2022-10-30T21:45:09.943Z,3.85
2022-10-30T21:47:37.281Z,3.00
2022-10-30T21:50:07.821Z,2.83
2022-10-30T21:52:36.774Z,3.58
2022-10-30T21:55:03.927Z,5.03
2022-10-30T21:57:31.072Z,5.07
2022-10-30T22:00:01.487Z,3.85
2022-10-30T22:02:33.395Z,4.85
2022-10-30T22:05:00.610Z,4.85
2022-10-30T22:07:27.711Z,3.70
2022-10-30T22:09:54.838Z,4.43
2022-10-30T22:12:22.093Z,4.93
2022-10-30T22:14:49.178Z,4.55
2022-10-30T22:17:16.340Z,1.80
2022-10-30T22:19:43.935Z,2.42
2022-10-30T22:22:11.231Z,4.90
2022-10-30T22:24:38.445Z,3.65
2022-10-30T22:27:05.930Z,5.03
2022-10-30T22:29:33.195Z,3.70
2022-10-30T22:32:00.426Z,3.83
2022-10-30T22:34:27.536Z,3.33
2022-10-30T22:36:54.756Z,4.43
2022-10-30T22:39:21.981Z,3.13
2022-10-30T22:41:49.218Z,4.18
2022-10-30T22:44:19.684Z,3.15
2022-10-30T22:46:46.836Z,3.85
2022-10-30T22:49:13.994Z,3.17
2022-10-30T22:51:41.126Z,3.72
2022-10-30T22:54:10.590Z,3.95
2022-10-30T22:56:39.400Z,2.75
2022-10-30T22:59:11.733Z,3.08
2022-10-30T23:01:39.398Z,2.72
2022-10-30T23:04:08.191Z,3.95
2022-10-30T23:06:35.749Z,3.63
2022-10-30T23:09:04.817Z,3.85
2022-10-30T23:11:33.609Z,3.60
2022-10-30T23:14:03.713Z,4.05
2022-10-30T23:16:30.960Z,5.13
2022-10-30T23:18:58.916Z,3.15
2022-10-30T23:21:26.858Z,4.35
2022-10-30T23:23:54.373Z,4.18
2022-10-30T23:26:40.396Z,4.07
2022-10-30T23:29:07.502Z,2.47
2022-10-30T23:31:39.372Z,4.80
2022-10-30T23:34:07.734Z,4.20
2022-10-30T23:36:34.843Z,2.38
2022-10-30T23:39:02.963Z,4.15
2022-10-30T23:41:31.162Z,4.93
2022-10-30T23:43:59.832Z,2.55
2022-10-30T23:48:54.357Z,5.18
2022-10-30T23:51:21.819Z,5.75
2022-10-30T23:53:49.212Z,4.60
2022-10-30T23:56:16.671Z,3.53
2022-10-30T23:58:44.656Z,4.75
